createdAt,value
2022-08-28T00:02:26.133Z,22.15
2022-08-28T00:04:55.470Z,22.37
2022-08-28T00:07:25.490Z,22.22
2022-08-28T00:09:54.550Z,22.28
2022-08-28T00:12:24.981Z,22.19
2022-08-28T00:14:54.737Z,22.03
2022-08-28T00:17:22.900Z,22.07
2022-08-28T00:19:51.237Z,22.06
2022-08-28T00:22:19.618Z,22.22
2022-08-28T00:24:48.204Z,22.29
2022-08-28T00:27:33.977Z,22.16
2022-08-28T00:30:03.842Z,22.05
2022-08-28T00:32:35.078Z,22.01
2022-08-28T00:35:06.748Z,22.04
2022-08-28T00:37:35.753Z,22.23
2022-08-28T00:40:05.595Z,22.28
2022-08-28T00:42:34.910Z,22.09
2022-08-28T00:45:07.393Z,22.17
2022-08-28T00:47:35.668Z,22.05
2022-08-28T00:50:05.417Z,22.14
2022-08-28T00:52:32.918Z,22.12
2022-08-28T00:55:05.460Z,22.07
2022-08-28T00:57:36.773Z,22.28
2022-08-28T01:00:14.035Z,22.08
2022-08-28T01:02:42.332Z,22.11
2022-08-28T01:05:11.022Z,21.99
2022-08-28T01:07:39.947Z,21.95
2022-08-28T01:10:11.216Z,21.98
2022-08-28T01:12:40.043Z,21.87
2022-08-28T01:15:13.965Z,21.88
2022-08-28T01:17:45.208Z,21.82
2022-08-28T01:20:17.445Z,21.93
2022-08-28T01:22:49.175Z,21.94
2022-08-28T01:25:21.929Z,21.86
2022-08-28T01:27:51.783Z,22.01
2022-08-28T01:30:23.533Z,22.09
2022-08-28T01:32:53.947Z,22.09
2022-08-28T01:35:25.978Z,22.02
2022-08-28T01:37:55.894Z,21.62
2022-08-28T01:40:28.624Z,21.71
2022-08-28T01:42:56.808Z,21.52
2022-08-28T01:45:26.333Z,21.72
2022-08-28T01:47:58.172Z,21.52
2022-08-28T01:50:26.883Z,21.52
2022-08-28T01:52:54.932Z,21.55
2022-08-28T01:55:23.938Z,21.30
2022-08-28T01:57:59.158Z,21.42
2022-08-28T02:00:28.887Z,21.51
2022-08-28T02:02:57.954Z,21.50
2022-08-28T02:05:29.941Z,21.53
2022-08-28T02:07:58.702Z,21.42
2022-08-28T02:10:28.696Z,21.24
2022-08-28T02:13:00.503Z,21.40
2022-08-28T02:15:30.503Z,21.31
2022-08-28T02:18:00.215Z,21.16
2022-08-28T02:20:29.895Z,21.11
2022-08-28T02:22:58.982Z,21.25
2022-08-28T02:25:28.907Z,21.37
2022-08-28T02:28:00.009Z,21.31
2022-08-28T02:30:31.403Z,21.42
2022-08-28T02:33:00.973Z,21.27
2022-08-28T02:35:31.393Z,21.32
2022-08-28T02:38:00.433Z,21.18
2022-08-28T02:40:29.794Z,21.26
2022-08-28T02:43:00.632Z,21.19
2022-08-28T02:45:28.790Z,21.36
2022-08-28T02:47:56.977Z,21.25
2022-08-28T02:50:25.919Z,21.14
2022-08-28T02:52:55.042Z,21.18
2022-08-28T02:55:24.932Z,21.53
2022-08-28T02:57:54.716Z,21.58
2022-08-28T03:00:26.505Z,21.54
2022-08-28T03:02:56.073Z,21.58
2022-08-28T03:05:26.430Z,21.51
2022-08-28T03:07:54.829Z,21.34
2022-08-28T03:10:24.055Z,21.59
2022-08-28T03:12:53.365Z,21.54
2022-08-28T03:15:22.705Z,21.66
2022-08-28T03:17:53.509Z,21.58
2022-08-28T03:20:23.080Z,21.35
2022-08-28T03:23:10.488Z,21.55
2022-08-28T03:25:38.774Z,21.65
2022-08-28T03:28:09.247Z,21.69
2022-08-28T03:30:41.043Z,21.78
2022-08-28T03:33:11.498Z,21.76
2022-08-28T03:35:39.590Z,21.64
2022-08-28T03:38:07.966Z,21.77
2022-08-28T03:40:40.779Z,21.75
2022-08-28T03:43:08.850Z,21.74
2022-08-28T03:45:37.887Z,21.64
2022-08-28T03:48:07.281Z,21.75
2022-08-28T03:50:37.283Z,21.70
2022-08-28T03:53:06.661Z,21.47
2022-08-28T03:55:37.178Z,21.54
2022-08-28T03:58:05.266Z,21.63
2022-08-28T04:00:34.772Z,21.75
2022-08-28T04:03:04.644Z,21.70
2022-08-28T04:05:35.064Z,21.61
2022-08-28T04:08:05.826Z,21.64
2022-08-28T04:10:34.802Z,21.59
2022-08-28T04:13:04.661Z,21.57
2022-08-28T04:15:32.990Z,21.61
2022-08-28T04:18:02.564Z,21.59
2022-08-28T04:20:30.918Z,21.54
2022-08-28T04:22:59.003Z,21.47
2022-08-28T04:25:31.612Z,21.40
2022-08-28T04:28:02.861Z,21.56
2022-08-28T04:30:32.199Z,21.69
2022-08-28T04:33:00.262Z,21.72
2022-08-28T04:35:29.522Z,21.61
2022-08-28T04:37:59.066Z,21.59
2022-08-28T04:40:28.644Z,21.66
2022-08-28T04:42:58.357Z,21.53
2022-08-28T04:45:27.683Z,21.58
2022-08-28T04:47:55.769Z,21.66
2022-08-28T04:50:27.151Z,21.53
2022-08-28T04:52:56.033Z,21.51
2022-08-28T04:55:41.417Z,21.52
2022-08-28T04:58:14.676Z,21.54
2022-08-28T05:00:44.796Z,21.75
2022-08-28T05:03:13.326Z,21.56
2022-08-28T05:05:43.238Z,21.75
2022-08-28T05:08:11.885Z,21.61
2022-08-28T05:10:41.704Z,21.82
2022-08-28T05:13:11.616Z,21.89
2022-08-28T05:15:44.588Z,21.71
2022-08-28T05:18:13.824Z,21.73
2022-08-28T05:20:45.293Z,21.67
2022-08-28T05:23:15.303Z,22.02
2022-08-28T05:25:47.522Z,21.98
2022-08-28T05:28:19.463Z,21.74
2022-08-28T05:30:50.238Z,21.65
2022-08-28T05:33:20.575Z,21.64
2022-08-28T05:35:50.090Z,21.48
2022-08-28T05:38:18.503Z,21.61
2022-08-28T05:40:49.982Z,21.47
2022-08-28T05:43:18.691Z,21.56
2022-08-28T05:46:00.747Z,21.78
2022-08-28T05:48:32.853Z,21.72
2022-08-28T05:51:08.147Z,21.74
2022-08-28T05:53:37.636Z,21.58
2022-08-28T05:56:09.358Z,21.74
2022-08-28T05:58:40.123Z,21.62
2022-08-28T06:01:12.780Z,21.59
2022-08-28T06:03:42.451Z,21.89
2022-08-28T06:06:18.172Z,21.63
2022-08-28T06:08:56.360Z,21.62
2022-08-28T06:11:30.898Z,21.85
2022-08-28T06:14:01.505Z,21.99
2022-08-28T06:16:32.423Z,22.01
2022-08-28T06:19:01.505Z,22.03
2022-08-28T06:21:29.884Z,22.07
2022-08-28T06:23:58.188Z,21.77
2022-08-28T06:26:27.907Z,21.72
2022-08-28T06:28:56.102Z,21.86
2022-08-28T06:31:26.435Z,21.78
2022-08-28T06:33:58.893Z,22.08
2022-08-28T06:36:29.088Z,21.92
2022-08-28T06:39:00.922Z,22.02
2022-08-28T06:41:31.792Z,21.75
2022-08-28T06:44:00.411Z,21.99
2022-08-28T06:46:33.365Z,21.99
2022-08-28T06:49:07.722Z,21.83
2022-08-28T06:51:36.684Z,22.06
2022-08-28T06:54:06.743Z,22.03
2022-08-28T06:56:34.998Z,22.22
2022-08-28T06:59:05.167Z,22.27
2022-08-28T07:01:35.463Z,22.38
2022-08-28T07:04:08.816Z,22.42
2022-08-28T07:06:38.953Z,22.35
2022-08-28T07:09:11.560Z,22.33
2022-08-28T07:11:40.050Z,22.62
2022-08-28T07:14:10.015Z,22.75
2022-08-28T07:16:39.624Z,22.58
2022-08-28T07:19:12.073Z,22.78
2022-08-28T07:21:44.777Z,22.84
2022-08-28T07:24:15.982Z,22.87
2022-08-28T07:26:45.311Z,22.69
2022-08-28T07:29:14.498Z,22.67
2022-08-28T07:31:46.553Z,22.73
2022-08-28T07:34:19.860Z,22.82
2022-08-28T07:36:48.290Z,22.80
2022-08-28T07:39:19.616Z,22.85
2022-08-28T07:41:48.841Z,22.76
2022-08-28T07:44:35.551Z,22.89
2022-08-28T07:47:06.564Z,22.63
2022-08-28T07:49:41.595Z,22.73
2022-08-28T07:52:12.673Z,22.82
2022-08-28T07:54:43.574Z,22.66
2022-08-28T07:57:12.503Z,22.59
2022-08-28T07:59:42.986Z,22.65
2022-08-28T08:02:15.410Z,22.62
2022-08-28T08:04:45.092Z,22.47
2022-08-28T08:07:14.553Z,22.29
2022-08-28T08:09:44.440Z,22.45
2022-08-28T08:12:13.331Z,22.51
2022-08-28T08:14:43.995Z,22.50
2022-08-28T08:17:13.701Z,22.44
2022-08-28T08:19:42.318Z,22.38
2022-08-28T08:22:16.582Z,21.87
2022-08-28T08:24:47.583Z,21.82
2022-08-28T08:27:17.231Z,21.35
2022-08-28T08:29:48.651Z,21.52
2022-08-28T08:32:20.242Z,21.66
2022-08-28T08:34:50.268Z,21.69
2022-08-28T08:37:20.325Z,21.95
2022-08-28T08:39:50.752Z,21.94
2022-08-28T08:42:26.247Z,21.85
2022-08-28T08:44:57.067Z,21.95
2022-08-28T08:47:32.651Z,21.89
2022-08-28T08:50:11.476Z,21.97
2022-08-28T08:52:48.879Z,22.18
2022-08-28T08:55:29.325Z,22.14
2022-08-28T08:58:08.993Z,22.24
2022-08-28T09:00:41.260Z,22.17
2022-08-28T09:03:15.481Z,22.40
2022-08-28T09:05:50.313Z,22.35
2022-08-28T09:08:30.475Z,22.23
2022-08-28T09:11:12.840Z,22.15
2022-08-28T09:13:51.894Z,22.28
2022-08-28T09:16:37.679Z,22.14
2022-08-28T09:19:07.383Z,22.03
2022-08-28T09:21:40.627Z,22.26
2022-08-28T09:24:19.531Z,22.42
2022-08-28T09:26:55.426Z,22.59
2022-08-28T09:29:31.583Z,22.70
2022-08-28T09:32:00.501Z,22.52
2022-08-28T09:34:38.564Z,22.69
2022-08-28T09:37:09.758Z,22.49
2022-08-28T09:39:49.006Z,22.52
2022-08-28T09:42:40.779Z,22.65
2022-08-28T09:45:18.639Z,22.87
2022-08-28T09:47:49.969Z,22.82
2022-08-28T09:50:38.160Z,23.26
2022-08-28T09:53:22.363Z,23.32
2022-08-28T09:55:58.483Z,23.02
2022-08-28T09:58:36.244Z,23.12
2022-08-28T10:01:18.644Z,23.02
2022-08-28T10:03:55.489Z,23.27
2022-08-28T10:06:27.190Z,23.33
2022-08-28T10:09:07.756Z,23.17
2022-08-28T10:11:48.314Z,23.31
2022-08-28T10:14:33.278Z,23.46
2022-08-28T10:17:12.149Z,23.85
2022-08-28T10:19:47.399Z,23.88
2022-08-28T10:22:26.835Z,23.94
2022-08-28T10:25:05.385Z,24.22
2022-08-28T10:27:48.580Z,24.13
2022-08-28T10:30:22.028Z,24.33
2022-08-28T10:33:00.403Z,24.28
2022-08-28T10:35:38.477Z,24.47
2022-08-28T10:38:10.507Z,24.81
2022-08-28T10:40:46.449Z,24.94
2022-08-28T10:43:20.419Z,24.27
2022-08-28T10:45:51.700Z,24.82
2022-08-28T10:48:28.635Z,25.20
2022-08-28T10:51:00.234Z,25.44
2022-08-28T10:53:39.313Z,25.32
2022-08-28T10:56:11.513Z,25.18
2022-08-28T10:58:43.342Z,25.29
2022-08-28T11:01:16.288Z,25.24
2022-08-28T11:03:50.031Z,24.97
2022-08-28T11:06:32.642Z,25.12
2022-08-28T11:09:24.817Z,25.12
2022-08-28T11:12:02.031Z,24.81
2022-08-28T11:14:35.443Z,24.83
2022-08-28T11:17:14.324Z,25.07
2022-08-28T11:20:33.465Z,25.21
2022-08-28T11:23:10.551Z,25.11
2022-08-28T11:25:48.971Z,25.28
2022-08-28T11:28:22.511Z,25.45
2022-08-28T11:31:29.033Z,25.73
2022-08-28T11:34:00.219Z,25.63
2022-08-28T11:37:03.823Z,25.59
2022-08-28T11:39:32.583Z,26.15
2022-08-28T11:42:32.411Z,26.16
2022-08-28T11:45:04.194Z,25.90
2022-08-28T11:47:56.954Z,25.87
2022-08-28T11:50:33.493Z,26.55
2022-08-28T11:53:36.081Z,26.14
2022-08-28T11:56:30.486Z,25.86
2022-08-28T11:59:09.877Z,26.16
2022-08-28T12:01:41.339Z,26.03
2022-08-28T12:04:12.486Z,26.25
2022-08-28T12:06:50.591Z,26.21
2022-08-28T12:09:43.968Z,25.91
2022-08-28T12:12:16.168Z,25.81
2022-08-28T12:15:09.332Z,25.79
2022-08-28T12:17:50.159Z,26.26
2022-08-28T12:21:07.209Z,26.31
2022-08-28T12:23:42.944Z,25.77
2022-08-28T12:26:21.802Z,26.41
2022-08-28T12:28:52.097Z,27.07
2022-08-28T12:31:45.967Z,26.92
2022-08-28T12:34:21.072Z,26.47
2022-08-28T12:36:57.617Z,26.87
2022-08-28T12:39:28.912Z,26.94
2022-08-28T12:41:58.921Z,27.23
2022-08-28T12:44:31.211Z,27.77
2022-08-28T12:47:00.204Z,26.95
2022-08-28T12:49:32.452Z,27.11
2022-08-28T12:52:17.438Z,27.15
2022-08-28T12:54:51.568Z,27.14
2022-08-28T12:57:25.123Z,27.16
2022-08-28T12:59:59.436Z,26.55
2022-08-28T13:02:31.255Z,26.21
2022-08-28T13:05:03.817Z,26.27
2022-08-28T13:07:34.034Z,26.45
2022-08-28T13:10:07.954Z,27.17
2022-08-28T13:12:55.799Z,27.09
2022-08-28T13:15:48.903Z,27.43
2022-08-28T13:18:37.247Z,27.61
2022-08-28T13:21:32.785Z,26.92
2022-08-28T13:24:30.011Z,26.61
2022-08-28T13:27:08.157Z,26.46
2022-08-28T13:29:37.668Z,26.35
2022-08-28T13:32:08.804Z,26.31
2022-08-28T13:34:39.093Z,26.29
2022-08-28T13:37:45.237Z,26.53
2022-08-28T13:40:38.210Z,26.59
2022-08-28T13:43:07.549Z,27.10
2022-08-28T13:45:42.931Z,26.83
2022-08-28T13:48:15.271Z,27.02
2022-08-28T13:50:46.843Z,27.82
2022-08-28T13:53:21.910Z,27.86
2022-08-28T13:58:35.944Z,27.04
2022-08-28T14:01:08.736Z,26.66
2022-08-28T14:03:36.054Z,26.49
2022-08-28T14:06:12.768Z,26.16
2022-08-28T14:08:45.513Z,25.85
2022-08-28T14:11:16.283Z,25.79
2022-08-28T14:13:55.855Z,25.91
2022-08-28T14:16:37.799Z,25.68
2022-08-28T14:19:13.626Z,25.76
2022-08-28T14:21:42.411Z,25.47
2022-08-28T14:24:15.241Z,25.58
2022-08-28T14:26:45.653Z,25.64
2022-08-28T14:29:19.329Z,25.52
2022-08-28T14:31:51.058Z,25.60
2022-08-28T14:34:22.491Z,25.75
2022-08-28T14:36:55.656Z,25.47
2022-08-28T14:39:27.720Z,25.56
2022-08-28T14:41:57.184Z,25.50
2022-08-28T14:44:26.658Z,25.61
2022-08-28T14:46:56.093Z,25.52
2022-08-28T14:49:28.906Z,25.52
2022-08-28T14:51:58.561Z,25.58
2022-08-28T14:54:34.520Z,25.62
2022-08-28T14:57:03.642Z,25.44
2022-08-28T14:59:37.662Z,25.52
2022-08-28T15:02:06.082Z,25.61
2022-08-28T15:04:37.868Z,25.55
2022-08-28T15:07:11.001Z,25.67
2022-08-28T15:09:51.299Z,25.82
2022-08-28T15:12:22.223Z,25.75
2022-08-28T15:14:57.490Z,25.51
2022-08-28T15:17:34.126Z,25.69
2022-08-28T15:20:06.012Z,25.68
2022-08-28T15:22:34.173Z,25.66
2022-08-28T15:25:09.869Z,25.88
2022-08-28T15:27:40.561Z,25.74
2022-08-28T15:30:13.154Z,25.86
2022-08-28T15:32:49.785Z,25.77
2022-08-28T15:35:21.458Z,25.89
2022-08-28T15:37:52.086Z,26.07
2022-08-28T15:40:41.267Z,26.00
2022-08-28T15:43:09.468Z,26.04
2022-08-28T15:45:41.083Z,25.54
2022-08-28T15:48:11.315Z,25.61
2022-08-28T15:50:52.642Z,25.67
2022-08-28T15:53:22.259Z,25.67
2022-08-28T15:55:54.249Z,25.30
2022-08-28T15:58:22.500Z,25.62
2022-08-28T16:00:53.941Z,25.69
2022-08-28T16:03:22.772Z,25.65
2022-08-28T16:05:50.978Z,25.62
2022-08-28T16:08:21.052Z,26.04
2022-08-28T16:10:52.087Z,26.50
2022-08-28T16:13:21.909Z,26.13
2022-08-28T16:15:55.550Z,26.04
2022-08-28T16:18:26.134Z,25.77
2022-08-28T16:21:04.580Z,25.41
2022-08-28T16:23:35.834Z,25.04
2022-08-28T16:26:09.888Z,24.97
2022-08-28T16:28:40.342Z,24.47
2022-08-28T16:31:19.073Z,24.46
2022-08-28T16:33:50.357Z,24.10
2022-08-28T16:36:23.833Z,24.21
2022-08-28T16:39:03.436Z,24.02
2022-08-28T16:41:34.598Z,23.53
2022-08-28T16:44:04.439Z,23.35
2022-08-28T16:46:35.291Z,23.30
2022-08-28T16:49:05.472Z,23.42
2022-08-28T16:51:34.274Z,23.24
2022-08-28T16:54:05.219Z,23.04
2022-08-28T16:56:36.179Z,23.08
2022-08-28T16:59:10.501Z,23.11
2022-08-28T17:01:42.851Z,23.10
2022-08-28T17:04:12.427Z,23.02
2022-08-28T17:06:47.734Z,23.02
2022-08-28T17:09:16.093Z,23.02
2022-08-28T17:11:45.533Z,23.14
2022-08-28T17:14:23.879Z,23.20
2022-08-28T17:16:52.886Z,23.02
2022-08-28T17:19:24.834Z,23.00
2022-08-28T17:22:11.146Z,22.88
2022-08-28T17:24:40.433Z,22.71
2022-08-28T17:27:25.568Z,22.69
2022-08-28T17:29:54.169Z,22.73
2022-08-28T17:32:22.413Z,22.76
2022-08-28T17:34:53.301Z,22.97
2022-08-28T17:37:24.433Z,22.89
2022-08-28T17:39:54.819Z,22.82
2022-08-28T17:42:33.320Z,22.87
2022-08-28T17:45:02.285Z,22.73
2022-08-28T17:47:33.562Z,22.79
2022-08-28T17:50:04.015Z,22.71
2022-08-28T17:52:33.630Z,22.50
2022-08-28T17:55:03.866Z,22.59
2022-08-28T17:57:34.408Z,22.66
2022-08-28T18:00:05.194Z,22.64
2022-08-28T18:02:57.811Z,22.50
2022-08-28T18:05:27.491Z,22.56
2022-08-28T18:07:56.133Z,22.58
2022-08-28T18:10:25.606Z,22.70
2022-08-28T18:12:55.868Z,22.57
2022-08-28T18:15:25.526Z,22.46
2022-08-28T18:17:58.382Z,22.58
2022-08-28T18:20:30.193Z,22.19
2022-08-28T18:23:07.814Z,22.58
2022-08-28T18:25:50.591Z,22.45
2022-08-28T18:28:27.497Z,22.51
2022-08-28T18:30:57.221Z,22.35
2022-08-28T18:33:30.954Z,22.53
2022-08-28T18:36:00.432Z,22.37
2022-08-28T18:38:38.823Z,22.40
2022-08-28T18:41:17.878Z,22.42
2022-08-28T18:43:49.946Z,22.46
2022-08-28T18:46:19.912Z,22.36
2022-08-28T18:48:52.597Z,22.36
2022-08-28T18:51:22.594Z,22.39
2022-08-28T18:53:51.607Z,22.52
2022-08-28T18:56:20.410Z,22.22
2022-08-28T18:58:52.430Z,22.23
2022-08-28T19:01:24.614Z,22.40
2022-08-28T19:04:00.419Z,22.32
2022-08-28T19:06:33.762Z,22.34
2022-08-28T19:09:06.142Z,22.37
2022-08-28T19:11:43.387Z,22.43
2022-08-28T19:14:16.041Z,22.39
2022-08-28T19:16:44.581Z,22.27
2022-08-28T19:19:24.624Z,22.25
2022-08-28T19:21:56.007Z,22.41
2022-08-28T19:24:25.767Z,22.43
2022-08-28T19:27:04.976Z,22.41
2022-08-28T19:29:39.109Z,22.43
2022-08-28T19:32:09.917Z,22.37
2022-08-28T19:34:38.545Z,22.15
2022-08-28T19:37:16.392Z,22.25
2022-08-28T19:39:56.316Z,22.36
2022-08-28T19:42:27.618Z,22.13
2022-08-28T19:44:59.937Z,22.07
2022-08-28T19:47:35.508Z,22.02
2022-08-28T19:50:09.788Z,22.31
2022-08-28T19:52:49.769Z,22.16
2022-08-28T19:55:22.548Z,22.12
2022-08-28T19:57:54.079Z,22.02
2022-08-28T20:00:29.969Z,21.90
2022-08-28T20:02:59.905Z,22.19
2022-08-28T20:05:32.204Z,22.13
2022-08-28T20:08:03.015Z,22.19
2022-08-28T20:10:31.920Z,22.15
2022-08-28T20:13:07.170Z,22.06
2022-08-28T20:15:39.686Z,22.17
2022-08-28T20:18:10.249Z,22.21
2022-08-28T20:20:40.212Z,22.18
2022-08-28T20:23:09.972Z,22.16
2022-08-28T20:25:40.583Z,22.09
2022-08-28T20:28:19.004Z,22.01
2022-08-28T20:30:48.788Z,22.10
2022-08-28T20:33:17.268Z,21.99
2022-08-28T20:35:46.327Z,22.04
2022-08-28T20:38:16.686Z,22.12
2022-08-28T20:40:45.674Z,22.18
2022-08-28T20:43:26.454Z,21.84
2022-08-28T20:46:02.974Z,21.97
2022-08-28T20:48:40.909Z,21.89
2022-08-28T20:51:11.535Z,22.11
2022-08-28T20:53:51.645Z,22.25
2022-08-28T20:56:23.130Z,21.95
2022-08-28T20:58:51.846Z,22.08
2022-08-28T21:01:26.112Z,21.98
2022-08-28T21:03:58.011Z,21.90
2022-08-28T21:06:27.389Z,21.95
2022-08-28T21:09:04.001Z,21.69
2022-08-28T21:11:34.930Z,21.51
2022-08-28T21:14:03.528Z,21.93
2022-08-28T21:16:35.349Z,21.86
2022-08-28T21:19:15.657Z,21.85
2022-08-28T21:21:47.557Z,21.90
2022-08-28T21:24:18.588Z,22.09
2022-08-28T21:26:50.582Z,21.96
2022-08-28T21:29:23.000Z,21.87
2022-08-28T21:31:53.675Z,21.96
2022-08-28T21:34:22.724Z,21.95
2022-08-28T21:36:54.477Z,21.88
2022-08-28T21:39:30.943Z,21.99
2022-08-28T21:42:04.477Z,21.95
2022-08-28T21:44:33.883Z,22.01
2022-08-28T21:47:06.183Z,21.83
2022-08-28T21:49:35.510Z,21.86
2022-08-28T21:52:06.564Z,21.96
2022-08-28T21:54:37.074Z,21.85
2022-08-28T21:57:05.670Z,21.59
2022-08-28T21:59:38.590Z,21.71
2022-08-28T22:02:08.227Z,21.77
2022-08-28T22:04:38.737Z,21.73
2022-08-28T22:07:07.067Z,21.81
2022-08-28T22:09:35.175Z,21.62
2022-08-28T22:12:06.444Z,21.62
2022-08-28T22:14:35.594Z,21.77
2022-08-28T22:17:10.179Z,21.61
2022-08-28T22:19:43.363Z,21.45
2022-08-28T22:22:32.796Z,21.60
2022-08-28T22:25:00.988Z,21.67
2022-08-28T22:27:31.966Z,21.61
2022-08-28T22:30:00.925Z,21.71
2022-08-28T22:32:31.327Z,21.48
2022-08-28T22:35:01.883Z,21.47
2022-08-28T22:37:30.155Z,21.48
2022-08-28T22:39:59.330Z,21.61
2022-08-28T22:42:28.788Z,21.61
2022-08-28T22:44:57.453Z,21.75
2022-08-28T22:47:25.704Z,21.52
2022-08-28T22:49:56.240Z,21.58
2022-08-28T22:52:30.044Z,21.71
2022-08-28T22:54:59.171Z,21.67
2022-08-28T22:57:28.647Z,21.54
2022-08-28T23:00:01.492Z,21.59
2022-08-28T23:02:31.576Z,21.44
2022-08-28T23:05:00.511Z,21.67
2022-08-28T23:07:30.170Z,21.33
2022-08-28T23:09:58.444Z,21.58
2022-08-28T23:12:28.144Z,21.76
2022-08-28T23:14:56.352Z,21.57
2022-08-28T23:17:33.708Z,21.60
2022-08-28T23:20:02.486Z,21.52
2022-08-28T23:22:41.788Z,21.68
2022-08-28T23:25:15.851Z,21.34
2022-08-28T23:27:44.078Z,21.40
2022-08-28T23:30:13.776Z,21.63
2022-08-28T23:32:43.541Z,21.29
2022-08-28T23:35:14.251Z,21.36
2022-08-28T23:37:48.479Z,21.47
2022-08-28T23:40:21.159Z,21.35
2022-08-28T23:42:50.174Z,21.46
2022-08-28T23:45:22.544Z,21.32
2022-08-28T23:47:51.312Z,21.35
2022-08-28T23:50:22.031Z,21.40
2022-08-28T23:52:53.161Z,21.29
2022-08-28T23:55:21.866Z,21.33
2022-08-28T23:57:52.398Z,21.48
